sensor_id;sensor_type;location;lat;lon;timestamp;pressure;altitude;pressure_sealevel;temperature;humidity
23170;BME280;11753;43.144;24.714;2023-06-24T00:00:39;99418.41;;;24.16;98.11
23170;BME280;11753;43.144;24.714;2023-06-24T00:01:43;99418.06;;;24.12;98.59
23170;BME280;11753;43.144;24.714;2023-06-24T00:02:44;99415.28;;;24.07;98.70
23170;BME280;11753;43.144;24.714;2023-06-24T00:03:45;99412.59;;;24.07;99.10
23170;BME280;11753;43.144;24.714;2023-06-24T00:04:47;99401.94;;;24.12;98.63
23170;BME280;11753;43.144;24.714;2023-06-24T00:05:48;99398.19;;;24.13;98.26
23170;BME280;11753;43.144;24.714;2023-06-24T00:06:50;99410.25;;;24.11;98.77
23170;BME280;11753;43.144;24.714;2023-06-24T00:07:53;99408.28;;;24.06;98.80
23170;BME280;11753;43.144;24.714;2023-06-24T00:08:57;99403.41;;;24.03;99.02
23170;BME280;11753;43.144;24.714;2023-06-24T00:10:01;99410.75;;;24.08;98.99
23170;BME280;11753;43.144;24.714;2023-06-24T00:11:04;99412.94;;;24.11;98.72
23170;BME280;11753;43.144;24.714;2023-06-24T00:12:06;99410.97;;;24.06;98.55
23170;BME280;11753;43.144;24.714;2023-06-24T00:13:07;99417.41;;;24.05;98.67
23170;BME280;11753;43.144;24.714;2023-06-24T00:14:08;99420.03;;;24.00;99.02
23170;BME280;11753;43.144;24.714;2023-06-24T00:15:09;99417.91;;;24.02;98.71
23170;BME280;11753;43.144;24.714;2023-06-24T00:16:11;99416.84;;;24.03;99.04
23170;BME280;11753;43.144;24.714;2023-06-24T00:17:12;99417.41;;;24.05;98.59
23170;BME280;11753;43.144;24.714;2023-06-24T00:18:13;99409.34;;;24.05;98.69
23170;BME280;11753;43.144;24.714;2023-06-24T00:19:14;99415.50;;;24.01;99.00
23170;BME280;11753;43.144;24.714;2023-06-24T00:20:15;99413.34;;;24.03;98.65
23170;BME280;11753;43.144;24.714;2023-06-24T00:21:18;99415.16;;;23.97;98.72
23170;BME280;11753;43.144;24.714;2023-06-24T00:22:20;99409.78;;;23.97;99.01
23170;BME280;11753;43.144;24.714;2023-06-24T00:23:23;99412.47;;;23.97;98.97
23170;BME280;11753;43.144;24.714;2023-06-24T00:24:26;99407.91;;;23.98;98.88
23170;BME280;11753;43.144;24.714;2023-06-24T00:25:28;99403.91;;;24.00;98.87
23170;BME280;11753;43.144;24.714;2023-06-24T00:26:29;99404.47;;;24.02;98.60
23170;BME280;11753;43.144;24.714;2023-06-24T00:27:30;99417.41;;;24.05;98.23
23170;BME280;11753;43.144;24.714;2023-06-24T00:28:31;99417.66;;;24.04;97.92
23170;BME280;11753;43.144;24.714;2023-06-24T00:29:31;99412.56;;;24.02;97.70
23170;BME280;11753;43.144;24.714;2023-06-24T00:30:32;99415.16;;;23.97;98.14
23170;BME280;11753;43.144;24.714;2023-06-24T00:31:33;99418.91;;;23.96;97.80
23170;BME280;11753;43.144;24.714;2023-06-24T00:32:34;99423.47;;;23.96;97.99
23170;BME280;11753;43.144;24.714;2023-06-24T00:33:35;99416.47;;;23.95;98.20
23170;BME280;11753;43.144;24.714;2023-06-24T00:34:36;99409.47;;;23.94;98.33
23170;BME280;11753;43.144;24.714;2023-06-24T00:35:37;99416.69;;;23.93;98.39
23170;BME280;11753;43.144;24.714;2023-06-24T00:36:38;99414.00;;;23.93;98.27
23170;BME280;11753;43.144;24.714;2023-06-24T00:37:39;99410.84;;;23.96;97.71
23170;BME280;11753;43.144;24.714;2023-06-24T00:38:41;99404.72;;;24.01;97.59
23170;BME280;11753;43.144;24.714;2023-06-24T00:39:42;99403.06;;;24.00;97.44
23170;BME280;11753;43.144;24.714;2023-06-24T00:40:45;99407.00;;;23.92;97.67
23170;BME280;11753;43.144;24.714;2023-06-24T00:41:47;99406.44;;;23.90;97.85
23170;BME280;11753;43.144;24.714;2023-06-24T00:42:48;99406.94;;;23.87;97.95
23170;BME280;11753;43.144;24.714;2023-06-24T00:43:49;99410.19;;;23.89;97.69
23170;BME280;11753;43.144;24.714;2023-06-24T00:44:50;99414.09;;;23.81;98.12
23170;BME280;11753;43.144;24.714;2023-06-24T00:45:52;99425.56;;;23.77;97.95
23170;BME280;11753;43.144;24.714;2023-06-24T00:46:54;99421.97;;;23.71;99.05
23170;BME280;11753;43.144;24.714;2023-06-24T00:47:55;99416.53;;;23.66;99.36
23170;BME280;11753;43.144;24.714;2023-06-24T00:48:57;99415.72;;;23.66;99.46
23170;BME280;11753;43.144;24.714;2023-06-24T00:49:58;99417.41;;;23.72;99.23
23170;BME280;11753;43.144;24.714;2023-06-24T00:50:59;99414.97;;;23.70;99.14
23170;BME280;11753;43.144;24.714;2023-06-24T00:52:00;99400.81;;;23.75;99.00
23170;BME280;11753;43.144;24.714;2023-06-24T00:53:01;99414.81;;;23.77;98.81
23170;BME280;11753;43.144;24.714;2023-06-24T00:54:02;99406.19;;;23.75;98.55
23170;BME280;11753;43.144;24.714;2023-06-24T00:55:04;99405.63;;;23.73;98.74
23170;BME280;11753;43.144;24.714;2023-06-24T00:56:05;99406.66;;;23.72;98.83
23170;BME280;11753;43.144;24.714;2023-06-24T00:57:07;99407.00;;;23.75;98.70
23170;BME280;11753;43.144;24.714;2023-06-24T00:58:08;99410.25;;;23.77;98.47
23170;BME280;11753;43.144;24.714;2023-06-24T00:59:13;99406.84;;;23.82;98.37
23170;BME280;11753;43.144;24.714;2023-06-24T01:00:16;99410.50;;;23.76;98.40
23170;BME280;11753;43.144;24.714;2023-06-24T01:01:19;99411.31;;;23.76;98.67
23170;BME280;11753;43.144;24.714;2023-06-24T01:02:22;99407.72;;;23.71;98.55
23170;BME280;11753;43.144;24.714;2023-06-24T01:03:28;99410.91;;;23.68;98.52
23170;BME280;11753;43.144;24.714;2023-06-24T01:04:34;99403.94;;;23.67;98.69
23170;BME280;11753;43.144;24.714;2023-06-24T01:05:35;99402.38;;;23.71;98.57
23170;BME280;11753;43.144;24.714;2023-06-24T01:06:37;99397.59;;;23.73;98.50
23170;BME280;11753;43.144;24.714;2023-06-24T01:07:45;99399.19;;;23.74;98.46
23170;BME280;11753;43.144;24.714;2023-06-24T01:08:59;99405.38;;;23.74;98.25
23170;BME280;11753;43.144;24.714;2023-06-24T01:10:00;99399.44;;;23.72;98.57
23170;BME280;11753;43.144;24.714;2023-06-24T01:11:01;99399.66;;;23.71;97.98
23170;BME280;11753;43.144;24.714;2023-06-24T01:12:01;99392.22;;;23.73;97.96
23170;BME280;11753;43.144;24.714;2023-06-24T01:13:02;99388.13;;;23.70;98.05
23170;BME280;11753;43.144;24.714;2023-06-24T01:14:03;99392.44;;;23.71;98.15
23170;BME280;11753;43.144;24.714;2023-06-24T01:15:06;99389.75;;;23.71;97.77
23170;BME280;11753;43.144;24.714;2023-06-24T01:16:12;99384.88;;;23.68;97.60
23170;BME280;11753;43.144;24.714;2023-06-24T01:17:22;99385.69;;;23.69;97.86
23170;BME280;11753;43.144;24.714;2023-06-24T01:18:43;99393.75;;;23.69;97.56
23170;BME280;11753;43.144;24.714;2023-06-24T01:21:10;99384.69;;;23.58;98.47
23170;BME280;11753;43.144;24.714;2023-06-24T01:22:45;99386.31;;;23.59;98.19
23170;BME280;11753;43.144;24.714;2023-06-24T01:26:22;99389.09;;;23.64;98.15
23170;BME280;11753;43.144;24.714;2023-06-24T01:30:36;99391.91;;;23.57;98.02
23170;BME280;11753;43.144;24.714;2023-06-24T01:33:38;99394.25;;;23.37;98.69
23170;BME280;11753;43.144;24.714;2023-06-24T01:34:48;99392.63;;;23.36;99.25
23170;BME280;11753;43.144;24.714;2023-06-24T01:35:54;99390.97;;;23.35;99.32
23170;BME280;11753;43.144;24.714;2023-06-24T01:37:10;99389.84;;;23.31;99.41
23170;BME280;11753;43.144;24.714;2023-06-24T01:38:24;99377.50;;;23.30;99.39
23170;BME280;11753;43.144;24.714;2023-06-24T01:39:31;99377.50;;;23.30;99.31
23170;BME280;11753;43.144;24.714;2023-06-24T01:40:43;99378.78;;;23.27;99.49
23170;BME280;11753;43.144;24.714;2023-06-24T01:41:52;99377.94;;;23.27;99.63
23170;BME280;11753;43.144;24.714;2023-06-24T01:42:57;99377.94;;;23.27;99.72
23170;BME280;11753;43.144;24.714;2023-06-24T01:43:59;99377.63;;;23.23;100.00
23170;BME280;11753;43.144;24.714;2023-06-24T01:45:01;99377.16;;;23.26;99.71
23170;BME280;11753;43.144;24.714;2023-06-24T01:46:03;99382.75;;;23.25;99.62
23170;BME280;11753;43.144;24.714;2023-06-24T01:47:06;99375.41;;;23.20;99.95
23170;BME280;11753;43.144;24.714;2023-06-24T01:48:25;99368.19;;;23.21;99.87
23170;BME280;11753;43.144;24.714;2023-06-24T01:49:30;99375.56;;;23.14;99.92
23170;BME280;11753;43.144;24.714;2023-06-24T01:50:35;99384.78;;;23.18;100.00
23170;BME280;11753;43.144;24.714;2023-06-24T01:51:38;99390.47;;;23.21;99.80
23170;BME280;11753;43.144;24.714;2023-06-24T01:52:43;99379.41;;;23.18;100.00
23170;BME280;11753;43.144;24.714;2023-06-24T01:53:53;99397.63;;;23.16;100.00
23170;BME280;11753;43.144;24.714;2023-06-24T01:54:55;99393.34;;;23.15;100.00
23170;BME280;11753;43.144;24.714;2023-06-24T01:55:59;99387.38;;;23.13;99.68
23170;BME280;11753;43.144;24.714;2023-06-24T01:57:01;99394.16;;;23.15;99.48
23170;BME280;11753;43.144;24.714;2023-06-24T01:58:05;99394.84;;;23.11;99.82
23170;BME280;11753;43.144;24.714;2023-06-24T01:59:08;99391.22;;;23.17;99.80
23170;BME280;11753;43.144;24.714;2023-06-24T02:00:10;99386.56;;;23.12;100.00
23170;BME280;11753;43.144;24.714;2023-06-24T02:01:12;99383.97;;;23.17;99.53
23170;BME280;11753;43.144;24.714;2023-06-24T02:02:13;99382.66;;;23.20;99.23
23170;BME280;11753;43.144;24.714;2023-06-24T02:03:15;99379.25;;;23.24;98.63
23170;BME280;11753;43.144;24.714;2023-06-24T02:04:16;99386.97;;;23.21;98.96
23170;BME280;11753;43.144;24.714;2023-06-24T02:05:18;99387.72;;;23.16;99.18
23170;BME280;11753;43.144;24.714;2023-06-24T02:06:20;99385.28;;;23.15;98.60
23170;BME280;11753;43.144;24.714;2023-06-24T02:07:23;99382.00;;;23.13;99.04
23170;BME280;11753;43.144;24.714;2023-06-24T02:08:29;99389.00;;;23.14;99.08
23170;BME280;11753;43.144;24.714;2023-06-24T02:09:33;99384.94;;;23.11;98.62
23170;BME280;11753;43.144;24.714;2023-06-24T02:10:38;99395.34;;;23.08;99.00
23170;BME280;11753;43.144;24.714;2023-06-24T02:11:39;99384.59;;;23.08;99.42
23170;BME280;11753;43.144;24.714;2023-06-24T02:12:44;99387.84;;;23.10;99.33
23170;BME280;11753;43.144;24.714;2023-06-24T02:13:45;99390.69;;;23.03;99.15
23170;BME280;11753;43.144;24.714;2023-06-24T02:14:48;99384.00;;;23.05;99.16
23170;BME280;11753;43.144;24.714;2023-06-24T02:15:51;99393.38;;;23.03;99.27
23170;BME280;11753;43.144;24.714;2023-06-24T02:16:55;99394.19;;;23.03;99.19
23170;BME280;11753;43.144;24.714;2023-06-24T02:17:58;99395.25;;;23.02;99.23
23170;BME280;11753;43.144;24.714;2023-06-24T02:19:03;99390.94;;;23.01;99.13
23170;BME280;11753;43.144;24.714;2023-06-24T02:20:07;99396.31;;;23.01;99.04
23170;BME280;11753;43.144;24.714;2023-06-24T02:21:11;99402.63;;;22.95;98.98
23170;BME280;11753;43.144;24.714;2023-06-24T02:22:13;99396.09;;;22.91;99.07
23170;BME280;11753;43.144;24.714;2023-06-24T02:23:15;99400.41;;;22.92;99.37
23170;BME280;11753;43.144;24.714;2023-06-24T02:24:19;99394.47;;;22.90;99.44
23170;BME280;11753;43.144;24.714;2023-06-24T02:25:20;99394.72;;;22.89;99.73
23170;BME280;11753;43.144;24.714;2023-06-24T02:26:22;99401.13;;;22.88;99.64
23170;BME280;11753;43.144;24.714;2023-06-24T02:27:24;99392.69;;;22.84;99.91
23170;BME280;11753;43.144;24.714;2023-06-24T02:28:25;99389.59;;;22.87;100.00
23170;BME280;11753;43.144;24.714;2023-06-24T02:29:27;99383.50;;;22.80;100.00
23170;BME280;11753;43.144;24.714;2023-06-24T02:30:29;99400.75;;;22.84;100.00
23170;BME280;11753;43.144;24.714;2023-06-24T02:31:30;99392.69;;;22.84;100.00
23170;BME280;11753;43.144;24.714;2023-06-24T02:32:31;99401.25;;;22.81;99.98
23170;BME280;11753;43.144;24.714;2023-06-24T02:33:32;99394.25;;;22.80;100.00
23170;BME280;11753;43.144;24.714;2023-06-24T02:35:34;99397.31;;;22.72;100.00
23170;BME280;11753;43.144;24.714;2023-06-24T02:36:35;99403.13;;;22.69;100.00
23170;BME280;11753;43.144;24.714;2023-06-24T02:37:36;99401.94;;;22.76;100.00
23170;BME280;11753;43.144;24.714;2023-06-24T02:38:37;99410.34;;;22.80;100.00
23170;BME280;11753;43.144;24.714;2023-06-24T02:39:38;99403.91;;;22.81;100.00
23170;BME280;11753;43.144;24.714;2023-06-24T02:40:48;99414.66;;;22.81;99.97
23170;BME280;11753;43.144;24.714;2023-06-24T02:41:50;99412.53;;;22.83;100.00
23170;BME280;11753;43.144;24.714;2023-06-24T02:42:51;99417.34;;;22.81;99.71
23170;BME280;11753;43.144;24.714;2023-06-24T02:43:51;99420.03;;;22.81;99.63
23170;BME280;11753;43.144;24.714;2023-06-24T02:44:53;99425.63;;;22.79;99.88
23170;BME280;11753;43.144;24.714;2023-06-24T02:45:54;99430.88;;;22.74;99.77
23170;BME280;11753;43.144;24.714;2023-06-24T02:46:55;99425.66;;;22.68;99.79
23170;BME280;11753;43.144;24.714;2023-06-24T02:47:58;99433.56;;;22.63;100.00
23170;BME280;11753;43.144;24.714;2023-06-24T02:49:00;99433.63;;;22.51;100.00
23170;BME280;11753;43.144;24.714;2023-06-24T02:50:05;99438.50;;;22.54;100.00
23170;BME280;11753;43.144;24.714;2023-06-24T02:51:08;99442.00;;;22.55;100.00
23170;BME280;11753;43.144;24.714;2023-06-24T02:52:10;99440.94;;;22.56;100.00
23170;BME280;11753;43.144;24.714;2023-06-24T02:53:12;99445.25;;;22.57;100.00
23170;BME280;11753;43.144;24.714;2023-06-24T02:54:13;99438.84;;;22.58;100.00
23170;BME280;11753;43.144;24.714;2023-06-24T02:55:15;99444.44;;;22.56;100.00
23170;BME280;11753;43.144;24.714;2023-06-24T02:56:16;99441.75;;;22.56;100.00
23170;BME280;11753;43.144;24.714;2023-06-24T02:57:22;99442.13;;;22.60;100.00
23170;BME280;11753;43.144;24.714;2023-06-24T02:58:24;99443.38;;;22.57;100.00
23170;BME280;11753;43.144;24.714;2023-06-24T02:59:31;99451.53;;;22.62;100.00
23170;BME280;11753;43.144;24.714;2023-06-24T03:00:32;99451.53;;;22.62;100.00
23170;BME280;11753;43.144;24.714;2023-06-24T03:01:35;99445.84;;;22.59;100.00
23170;BME280;11753;43.144;24.714;2023-06-24T03:02:39;99447.22;;;22.61;100.00
23170;BME280;11753;43.144;24.714;2023-06-24T03:03:41;99438.25;;;22.56;100.00
23170;BME280;11753;43.144;24.714;2023-06-24T03:04:42;99450.28;;;22.65;100.00
23170;BME280;11753;43.144;24.714;2023-06-24T03:05:43;99448.16;;;22.67;100.00
23170;BME280;11753;43.144;24.714;2023-06-24T03:06:45;99447.59;;;22.65;100.00
23170;BME280;11753;43.144;24.714;2023-06-24T03:07:46;99449.78;;;22.68;100.00
23170;BME280;11753;43.144;24.714;2023-06-24T03:08:50;99451.41;;;22.69;100.00
23170;BME280;11753;43.144;24.714;2023-06-24T03:09:51;99444.06;;;22.76;100.00
23170;BME280;11753;43.144;24.714;2023-06-24T03:10:56;99452.09;;;22.76;100.00
23170;BME280;11753;43.144;24.714;2023-06-24T03:11:57;99447.31;;;22.78;99.96
23170;BME280;11753;43.144;24.714;2023-06-24T03:12:57;99447.91;;;22.80;99.88
23170;BME280;11753;43.144;24.714;2023-06-24T03:13:59;99447.91;;;22.80;100.00
23170;BME280;11753;43.144;24.714;2023-06-24T03:15:00;99452.47;;;22.79;100.00
23170;BME280;11753;43.144;24.714;2023-06-24T03:16:03;99443.81;;;22.77;100.00
23170;BME280;11753;43.144;24.714;2023-06-24T03:17:04;99456.66;;;22.75;100.00
23170;BME280;11753;43.144;24.714;2023-06-24T03:18:07;99453.84;;;22.70;100.00
23170;BME280;11753;43.144;24.714;2023-06-24T03:20:09;99455.47;;;22.71;100.00
23170;BME280;11753;43.144;24.714;2023-06-24T03:21:10;99460.72;;;22.78;100.00
23170;BME280;11753;43.144;24.714;2023-06-24T03:22:10;99453.28;;;22.80;100.00
23170;BME280;11753;43.144;24.714;2023-06-24T03:23:11;99452.47;;;22.79;99.98
23170;BME280;11753;43.144;24.714;2023-06-24T03:24:11;99460.72;;;22.78;99.65
23170;BME280;11753;43.144;24.714;2023-06-24T03:25:12;99460.16;;;22.76;100.00
23170;BME280;11753;43.144;24.714;2023-06-24T03:26:13;99451.28;;;22.75;100.00
23170;BME280;11753;43.144;24.714;2023-06-24T03:27:14;99461.78;;;22.77;100.00
23170;BME280;11753;43.144;24.714;2023-06-24T03:28:17;99452.09;;;22.76;100.00
23170;BME280;11753;43.144;24.714;2023-06-24T03:29:17;99451.66;;;22.79;100.00
23170;BME280;11753;43.144;24.714;2023-06-24T03:30:18;99449.78;;;22.79;99.57
23170;BME280;11753;43.144;24.714;2023-06-24T03:31:19;99450.00;;;22.78;99.51
23170;BME280;11753;43.144;24.714;2023-06-24T03:32:23;99453.72;;;22.77;99.51
23170;BME280;11753;43.144;24.714;2023-06-24T03:33:24;99463.09;;;22.86;99.29
23170;BME280;11753;43.144;24.714;2023-06-24T03:34:26;99462.03;;;22.87;99.43
23170;BME280;11753;43.144;24.714;2023-06-24T03:35:27;99461.78;;;22.89;99.16
23170;BME280;11753;43.144;24.714;2023-06-24T03:36:28;99455.94;;;22.92;99.12
23170;BME280;11753;43.144;24.714;2023-06-24T03:37:29;99456.28;;;22.95;98.67
23170;BME280;11753;43.144;24.714;2023-06-24T03:38:29;99457.34;;;22.94;98.67
23170;BME280;11753;43.144;24.714;2023-06-24T03:39:30;99460.03;;;22.94;98.57
23170;BME280;11753;43.144;24.714;2023-06-24T03:40:31;99453.50;;;22.90;98.79
23170;BME280;11753;43.144;24.714;2023-06-24T03:41:32;99459.53;;;22.97;98.59
23170;BME280;11753;43.144;24.714;2023-06-24T03:42:33;99448.91;;;23.02;97.85
23170;BME280;11753;43.144;24.714;2023-06-24T03:43:33;99457.53;;;23.04;98.10
23170;BME280;11753;43.144;24.714;2023-06-24T03:44:34;99460.72;;;23.01;98.04
23170;BME280;11753;43.144;24.714;2023-06-24T03:45:35;99470.50;;;23.08;97.57
23170;BME280;11753;43.144;24.714;2023-06-24T03:46:35;99469.44;;;23.09;97.33
23170;BME280;11753;43.144;24.714;2023-06-24T03:47:36;99468.38;;;23.10;97.08
23170;BME280;11753;43.144;24.714;2023-06-24T03:48:36;99476.44;;;23.10;96.89
23170;BME280;11753;43.144;24.714;2023-06-24T03:49:37;99474.47;;;23.05;96.95
23170;BME280;11753;43.144;24.714;2023-06-24T03:50:37;99481.25;;;23.08;96.95
23170;BME280;11753;43.144;24.714;2023-06-24T03:51:38;99479.13;;;23.10;97.24
23170;BME280;11753;43.144;24.714;2023-06-24T03:52:38;99472.22;;;23.14;97.10
23170;BME280;11753;43.144;24.714;2023-06-24T03:53:39;99473.94;;;23.20;96.53
23170;BME280;11753;43.144;24.714;2023-06-24T03:54:40;99472.06;;;23.20;96.43
23170;BME280;11753;43.144;24.714;2023-06-24T03:55:40;99470.19;;;23.21;96.53
23170;BME280;11753;43.144;24.714;2023-06-24T03:56:41;99471.94;;;23.27;96.16
23170;BME280;11753;43.144;24.714;2023-06-24T03:57:42;99478.72;;;23.29;95.94
23170;BME280;11753;43.144;24.714;2023-06-24T03:58:43;99476.91;;;23.35;96.10
23170;BME280;11753;43.144;24.714;2023-06-24T03:59:44;99486.13;;;23.39;95.32
23170;BME280;11753;43.144;24.714;2023-06-24T04:00:45;99477.59;;;23.42;95.19
23170;BME280;11753;43.144;24.714;2023-06-24T04:01:46;99472.00;;;23.44;95.18
23170;BME280;11753;43.144;24.714;2023-06-24T04:02:47;99480.38;;;23.47;94.70
23170;BME280;11753;43.144;24.714;2023-06-24T04:03:48;99475.66;;;23.54;94.22
23170;BME280;11753;43.144;24.714;2023-06-24T04:04:50;99472.75;;;23.56;94.15
23170;BME280;11753;43.144;24.714;2023-06-24T04:05:54;99467.50;;;23.61;94.20
23170;BME280;11753;43.144;24.714;2023-06-24T04:06:55;99471.47;;;23.58;93.95
23170;BME280;11753;43.144;24.714;2023-06-24T04:07:56;99475.56;;;23.61;93.91
23170;BME280;11753;43.144;24.714;2023-06-24T04:08:57;99462.94;;;23.61;94.05
23170;BME280;11753;43.144;24.714;2023-06-24T04:09:58;99470.75;;;23.63;93.73
23170;BME280;11753;43.144;24.714;2023-06-24T04:10:59;99473.19;;;23.65;93.71
23170;BME280;11753;43.144;24.714;2023-06-24T04:12:04;99468.97;;;23.69;93.48
23170;BME280;11753;43.144;24.714;2023-06-24T04:13:05;99470.84;;;23.68;93.45
23170;BME280;11753;43.144;24.714;2023-06-24T04:14:06;99465.72;;;23.67;93.21
23170;BME280;11753;43.144;24.714;2023-06-24T04:15:08;99460.09;;;23.68;93.37
23170;BME280;11753;43.144;24.714;2023-06-24T04:16:09;99471.66;;;23.69;93.66
23170;BME280;11753;43.144;24.714;2023-06-24T04:17:09;99466.13;;;23.75;93.55
23170;BME280;11753;43.144;24.714;2023-06-24T04:18:10;99470.19;;;23.78;93.45
23170;BME280;11753;43.144;24.714;2023-06-24T04:19:10;99465.31;;;23.75;93.09
23170;BME280;11753;43.144;24.714;2023-06-24T04:20:11;99464.00;;;23.77;92.51
23170;BME280;11753;43.144;24.714;2023-06-24T04:21:12;99465.31;;;23.75;92.58
23170;BME280;11753;43.144;24.714;2023-06-24T04:22:15;99462.06;;;23.73;92.55
23170;BME280;11753;43.144;24.714;2023-06-24T04:23:16;99467.44;;;23.73;92.73
23170;BME280;11753;43.144;24.714;2023-06-24T04:24:17;99469.06;;;23.74;92.96
23170;BME280;11753;43.144;24.714;2023-06-24T04:25:17;99470.69;;;23.75;92.99
23170;BME280;11753;43.144;24.714;2023-06-24T04:26:21;99479.81;;;23.74;92.51
23170;BME280;11753;43.144;24.714;2023-06-24T04:27:22;99478.19;;;23.73;92.90
23170;BME280;11753;43.144;24.714;2023-06-24T04:28:23;99486.31;;;23.78;92.78
23170;BME280;11753;43.144;24.714;2023-06-24T04:29:24;99483.97;;;23.81;93.06
23170;BME280;11753;43.144;24.714;2023-06-24T04:30:25;99489.19;;;23.88;92.47
23170;BME280;11753;43.144;24.714;2023-06-24T04:31:26;99491.88;;;23.88;92.66
23170;BME280;11753;43.144;24.714;2023-06-24T04:32:28;99486.81;;;23.92;92.83
23170;BME280;11753;43.144;24.714;2023-06-24T04:33:28;99477.69;;;23.93;93.06
23170;BME280;11753;43.144;24.714;2023-06-24T04:34:31;99493.09;;;23.97;93.03
23170;BME280;11753;43.144;24.714;2023-06-24T04:35:32;99485.13;;;24.02;92.41
23170;BME280;11753;43.144;24.714;2023-06-24T04:36:33;99482.44;;;24.02;92.98
23170;BME280;11753;43.144;24.714;2023-06-24T04:37:35;99482.28;;;24.09;92.73
23170;BME280;11753;43.144;24.714;2023-06-24T04:38:36;99486.34;;;24.11;92.94
23170;BME280;11753;43.144;24.714;2023-06-24T04:39:37;99501.50;;;24.17;92.89
23170;BME280;11753;43.144;24.714;2023-06-24T04:40:38;99495.16;;;24.24;92.64
23170;BME280;11753;43.144;24.714;2023-06-24T04:41:39;99494.66;;;24.27;92.26
23170;BME280;11753;43.144;24.714;2023-06-24T04:42:39;99498.22;;;24.32;91.95
23170;BME280;11753;43.144;24.714;2023-06-24T04:43:40;99497.03;;;24.40;91.58
23170;BME280;11753;43.144;24.714;2023-06-24T04:44:41;99498.75;;;24.46;90.51
23170;BME280;11753;43.144;24.714;2023-06-24T04:45:42;99493.91;;;24.48;90.02
23170;BME280;11753;43.144;24.714;2023-06-24T04:46:43;99494.25;;;24.52;89.79
23170;BME280;11753;43.144;24.714;2023-06-24T04:47:44;99488.09;;;24.56;89.80
23170;BME280;11753;43.144;24.714;2023-06-24T04:48:45;99491.94;;;24.60;90.06
23170;BME280;11753;43.144;24.714;2023-06-24T04:49:46;99488.53;;;24.65;89.45
23170;BME280;11753;43.144;24.714;2023-06-24T04:50:47;99485.84;;;24.65;88.98
23170;BME280;11753;43.144;24.714;2023-06-24T04:51:48;99491.00;;;24.71;88.19
23170;BME280;11753;43.144;24.714;2023-06-24T04:52:53;99492.16;;;24.76;88.29
23170;BME280;11753;43.144;24.714;2023-06-24T04:53:57;99482.53;;;24.80;87.89
23170;BME280;11753;43.144;24.714;2023-06-24T04:54:58;99485.59;;;24.88;88.02
23170;BME280;11753;43.144;24.714;2023-06-24T04:55:59;99482.97;;;24.93;87.49
23170;BME280;11753;43.144;24.714;2023-06-24T04:56:59;99486.72;;;24.92;87.41
23170;BME280;11753;43.144;24.714;2023-06-24T04:58:00;99480.28;;;24.93;87.35
23170;BME280;11753;43.144;24.714;2023-06-24T04:59:01;99484.91;;;24.98;87.23
23170;BME280;11753;43.144;24.714;2023-06-24T05:00:03;99481.13;;;24.99;87.04
23170;BME280;11753;43.144;24.714;2023-06-24T05:01:04;99477.72;;;25.04;86.58
23170;BME280;11753;43.144;24.714;2023-06-24T05:02:05;99484.50;;;25.06;86.35
23170;BME280;11753;43.144;24.714;2023-06-24T05:03:06;99481.06;;;25.11;86.71
23170;BME280;11753;43.144;24.714;2023-06-24T05:04:07;99477.63;;;25.15;87.05
23170;BME280;11753;43.144;24.714;2023-06-24T05:05:08;99477.91;;;25.19;87.32
23170;BME280;11753;43.144;24.714;2023-06-24T05:06:08;99473.94;;;25.27;86.73
23170;BME280;11753;43.144;24.714;2023-06-24T05:07:09;99476.16;;;25.30;86.59
23170;BME280;11753;43.144;24.714;2023-06-24T05:08:09;99472.38;;;25.31;85.70
23170;BME280;11753;43.144;24.714;2023-06-24T05:09:10;99471.88;;;25.34;85.18
23170;BME280;11753;43.144;24.714;2023-06-24T05:10:14;99470.88;;;25.40;84.93
23170;BME280;11753;43.144;24.714;2023-06-24T05:11:15;99475.72;;;25.43;84.48
23170;BME280;11753;43.144;24.714;2023-06-24T05:12:18;99472.00;;;25.44;84.41
23170;BME280;11753;43.144;24.714;2023-06-24T05:13:18;99471.47;;;25.47;84.88
23170;BME280;11753;43.144;24.714;2023-06-24T05:14:19;99474.72;;;25.49;84.87
23170;BME280;11753;43.144;24.714;2023-06-24T05:15:19;99472.59;;;25.51;84.70
23170;BME280;11753;43.144;24.714;2023-06-24T05:16:20;99476.66;;;25.53;83.73
23170;BME280;11753;43.144;24.714;2023-06-24T05:17:21;99477.47;;;25.54;83.52
23170;BME280;11753;43.144;24.714;2023-06-24T05:18:21;99483.69;;;25.55;83.36
23170;BME280;11753;43.144;24.714;2023-06-24T05:19:22;99479.66;;;25.57;83.63
23170;BME280;11753;43.144;24.714;2023-06-24T05:20:23;99486.72;;;25.63;83.63
23170;BME280;11753;43.144;24.714;2023-06-24T05:21:24;99477.06;;;25.67;83.45
23170;BME280;11753;43.144;24.714;2023-06-24T05:22:25;99483.00;;;25.69;83.56
23170;BME280;11753;43.144;24.714;2023-06-24T05:23:26;99481.47;;;25.73;83.03
23170;BME280;11753;43.144;24.714;2023-06-24T05:24:27;99478.00;;;25.78;83.58
23170;BME280;11753;43.144;24.714;2023-06-24T05:25:27;99481.00;;;25.82;83.81
23170;BME280;11753;43.144;24.714;2023-06-24T05:26:28;99479.72;;;25.89;84.54
23170;BME280;11753;43.144;24.714;2023-06-24T05:27:29;99477.88;;;25.95;84.54
23170;BME280;11753;43.144;24.714;2023-06-24T05:28:30;99463.88;;;25.98;83.81
23170;BME280;11753;43.144;24.714;2023-06-24T05:29:31;99470.94;;;26.04;83.63
23170;BME280;11753;43.144;24.714;2023-06-24T05:30:31;99467.16;;;26.05;82.95
23170;BME280;11753;43.144;24.714;2023-06-24T05:31:32;99466.66;;;26.08;82.27
23170;BME280;11753;43.144;24.714;2023-06-24T05:32:33;99477.44;;;26.08;82.22
23170;BME280;11753;43.144;24.714;2023-06-24T05:33:34;99471.53;;;26.11;82.14
23170;BME280;11753;43.144;24.714;2023-06-24T05:34:35;99474.81;;;26.18;82.44
23170;BME280;11753;43.144;24.714;2023-06-24T05:35:36;99473.75;;;26.19;82.40